Time;durP1;ratioP1;P1;durP2;ratioP2;P2;SDS_P1;SDS_P2;PMS_P1;PMS_P2;Temp;Humidity;BMP_temperature;BMP_pressure;BME280_temperature;BME280_humidity;BME280_pressure;Samples;Min_cycle;Max_cycle;Signal;HPM_P1;HPM_P2
2022/08/17 00:00:24;;;;;;;6.00;5.50;;;26.40;45.30;;;;;;5057902;28;20896;-88
2022/08/17 00:03:01;;;;;;;6.70;6.10;;;26.30;45.30;;;;;;5080444;28;20475;-88
2022/08/17 00:05:30;;;;;;;6.60;5.57;;;26.30;45.10;;;;;;5078616;28;20965;-88
2022/08/17 00:07:57;;;;;;;6.57;5.33;;;26.30;45.00;;;;;;5063517;28;20976;-88
2022/08/17 00:10:26;;;;;;;7.93;6.17;;;26.20;45.20;;;;;;5096282;28;20471;-91
2022/08/17 00:12:53;;;;;;;6.37;5.77;;;26.20;45.30;;;;;;5062590;28;20479;-88
2022/08/17 00:15:21;;;;;;;8.90;6.43;;;26.20;45.50;;;;;;5062046;28;20448;-86
2022/08/17 00:17:50;;;;;;;7.70;5.70;;;26.10;45.50;;;;;;5081404;28;20464;-88
2022/08/17 00:20:18;;;;;;;6.10;5.50;;;26.10;45.60;;;;;;5067479;28;20474;-87
2022/08/17 00:22:45;;;;;;;6.27;5.67;;;26.10;45.80;;;;;;5063933;28;20870;-88
2022/08/17 00:25:15;;;;;;;6.77;5.90;;;26.00;45.70;;;;;;5090156;28;20826;-89
2022/08/17 00:27:43;;;;;;;6.67;6.07;;;26.00;45.50;;;;;;5068767;28;20531;-88
2022/08/17 00:30:13;;;;;;;6.80;6.20;;;25.90;45.40;;;;;;5062310;28;20470;-87
2022/08/17 00:32:42;;;;;;;6.90;6.23;;;25.90;45.40;;;;;;5039463;28;20447;-89
2022/08/17 00:35:11;;;;;;;6.07;5.57;;;25.90;45.50;;;;;;5096242;28;20825;-89
2022/08/17 00:37:38;;;;;;;7.17;5.50;;;25.90;45.60;;;;;;5077184;28;20447;-88
2022/08/17 00:40:06;;;;;;;7.23;6.27;;;25.80;45.00;;;;;;5078036;28;20472;-88
2022/08/17 00:42:33;;;;;;;6.73;6.13;;;25.80;45.60;;;;;;5075954;28;20453;-90
2022/08/17 00:45:03;;;;;;;7.43;5.97;;;25.80;45.90;;;;;;5075328;28;21221;-88
2022/08/17 00:47:30;;;;;;;6.70;6.17;;;25.70;45.90;;;;;;5095221;28;20466;-88
2022/08/17 00:49:57;;;;;;;5.90;5.40;;;25.70;46.00;;;;;;5059329;28;21000;-90
2022/08/17 00:52:30;;;;;;;6.80;6.10;;;25.70;46.20;;;;;;5065434;28;20455;-89
2022/08/17 00:54:58;;;;;;;7.80;6.77;;;25.60;46.10;;;;;;5068856;28;20492;-90
2022/08/17 00:57:30;;;;;;;7.30;6.60;;;25.40;46.40;;;;;;5091457;28;20450;-90
2022/08/17 01:00:02;;;;;;;6.30;5.70;;;25.20;47.30;;;;;;5065959;28;20907;-91
2022/08/17 01:02:32;;;;;;;6.40;5.80;;;25.30;46.70;;;;;;5074723;28;20446;-88
2022/08/17 01:04:59;;;;;;;10.23;5.90;;;25.30;46.50;;;;;;5060511;28;20924;-87
2022/08/17 01:07:26;;;;;;;7.03;6.30;;;25.30;46.30;;;;;;5068117;28;20958;-88
2022/08/17 01:09:54;;;;;;;6.40;5.90;;;25.30;46.50;;;;;;5048797;28;20475;-88
2022/08/17 01:12:22;;;;;;;6.40;5.80;;;25.30;46.60;;;;;;5065288;28;20451;-89
2022/08/17 01:14:49;;;;;;;6.40;5.90;;;25.30;46.90;;;;;;5047642;28;20424;-88
2022/08/17 01:17:18;;;;;;;6.60;6.00;;;25.30;47.10;;;;;;5057763;28;20448;-87
2022/08/17 01:19:45;;;;;;;6.10;5.50;;;25.30;47.10;;;;;;5072565;28;20546;-88
2022/08/17 01:22:19;;;;;;;7.50;6.40;;;25.30;47.40;;;;;;5057757;28;20492;-89
2022/08/17 01:24:52;;;;;;;6.80;6.20;;;25.30;47.80;;;;;;5062820;28;20883;-87
2022/08/17 01:27:20;;;;;;;7.90;6.63;;;25.30;47.70;;;;;;5058430;28;21227;-88
2022/08/17 01:29:50;;;;;;;6.93;6.30;;;25.20;47.50;;;;;;5045238;28;20982;-90
2022/08/17 01:32:18;;;;;;;7.10;6.50;;;25.20;47.20;;;;;;5065682;28;21015;-87
2022/08/17 01:34:46;;;;;;;6.63;5.97;;;25.20;47.30;;;;;;5093044;28;20444;-90
2022/08/17 01:37:14;;;;;;;7.70;5.80;;;25.20;47.40;;;;;;5049971;28;20447;-88
2022/08/17 01:39:47;;;;;;;8.37;5.80;;;25.10;47.20;;;;;;5050177;28;20474;-88
2022/08/17 01:42:22;;;;;;;6.27;5.77;;;25.10;47.40;;;;;;5074835;28;20450;-88
2022/08/17 01:44:53;;;;;;;6.97;6.33;;;25.00;47.70;;;;;;5074215;28;20455;-89
2022/08/17 01:47:21;;;;;;;5.97;5.43;;;25.00;48.10;;;;;;5047709;28;20464;-87
2022/08/17 01:49:48;;;;;;;7.03;6.33;;;25.00;48.40;;;;;;5051245;28;20456;-88
2022/08/17 01:52:15;;;;;;;8.17;6.70;;;25.00;48.50;;;;;;5055665;28;20470;-87
2022/08/17 01:54:46;;;;;;;7.00;6.30;;;25.00;48.90;;;;;;5074338;28;20445;-90
2022/08/17 01:57:14;;;;;;;7.00;6.30;;;25.00;48.90;;;;;;5048803;28;20482;-90
2022/08/17 01:59:41;;;;;;;7.03;6.33;;;24.90;48.90;;;;;;5062061;28;20463;-89
2022/08/17 02:02:08;;;;;;;6.80;6.10;;;24.80;48.70;;;;;;5059594;28;20508;-89
2022/08/17 02:04:36;;;;;;;7.27;6.07;;;24.80;48.50;;;;;;5057746;28;20530;-88
2022/08/17 02:07:03;;;;;;;6.60;5.90;;;24.70;48.40;;;;;;5058577;28;20451;-88
2022/08/17 02:09:30;;;;;;;6.53;5.90;;;24.70;48.50;;;;;;5058741;28;20465;-87
2022/08/17 02:12:01;;;;;;;10.00;6.30;;;24.70;48.90;;;;;;5050250;28;20451;-88
2022/08/17 02:14:28;;;;;;;6.50;6.00;;;24.70;49.20;;;;;;5057680;28;20448;-88
2022/08/17 02:16:55;;;;;;;7.40;6.67;;;24.70;49.20;;;;;;5065513;28;20526;-88
2022/08/17 02:19:22;;;;;;;6.20;5.50;;;24.60;49.40;;;;;;5082073;28;20743;-89
2022/08/17 02:21:52;;;;;;;8.27;6.93;;;24.60;49.40;;;;;;5045104;28;20499;-88
2022/08/17 02:24:23;;;;;;;7.33;6.63;;;24.60;49.60;;;;;;5064451;28;20464;-88
2022/08/17 02:26:50;;;;;;;9.40;6.60;;;24.60;49.90;;;;;;5072708;28;20447;-88
2022/08/17 02:29:18;;;;;;;8.70;6.80;;;24.50;49.90;;;;;;5072075;28;20455;-88
2022/08/17 02:31:46;;;;;;;8.60;6.17;;;24.50;49.90;;;;;;5061108;28;20497;-89
2022/08/17 02:34:14;;;;;;;7.97;6.90;;;24.50;50.00;;;;;;5042695;28;20443;-89
2022/08/17 02:36:41;;;;;;;6.77;6.00;;;24.40;49.70;;;;;;5076497;28;20968;-87
2022/08/17 02:39:10;;;;;;;8.97;6.27;;;24.40;49.50;;;;;;5044714;28;20455;-88
2022/08/17 02:41:38;;;;;;;6.70;6.10;;;24.40;49.30;;;;;;5066203;28;20554;-91
2022/08/17 02:44:06;;;;;;;6.90;6.20;;;24.40;49.30;;;;;;5058674;28;20938;-88
2022/08/17 02:46:34;;;;;;;7.17;6.47;;;24.40;49.50;;;;;;5064394;28;20479;-87
2022/08/17 02:49:02;;;;;;;7.60;6.90;;;24.30;49.70;;;;;;5048189;28;20507;-89
2022/08/17 02:51:29;;;;;;;6.57;5.97;;;24.30;49.90;;;;;;5053246;28;20567;-89
2022/08/17 02:53:56;;;;;;;8.17;7.27;;;24.30;49.90;;;;;;5065584;28;20777;-88
2022/08/17 02:56:23;;;;;;;7.43;6.73;;;24.30;49.90;;;;;;5076810;28;20816;-88
2022/08/17 02:58:50;;;;;;;7.70;6.53;;;24.30;49.70;;;;;;5072283;28;20447;-88
2022/08/17 03:01:17;;;;;;;7.27;6.57;;;24.30;49.50;;;;;;5065106;28;20766;-88
2022/08/17 03:03:45;;;;;;;8.77;6.23;;;24.30;49.50;;;;;;5039047;28;20564;-88
2022/08/17 03:06:12;;;;;;;6.90;6.10;;;24.20;49.10;;;;;;5034878;28;20879;-89
2022/08/17 03:08:39;;;;;;;8.63;5.60;;;24.20;49.10;;;;;;5069112;28;20456;-90
2022/08/17 03:11:06;;;;;;;7.67;6.87;;;24.10;48.90;;;;;;5056906;28;20898;-90
2022/08/17 03:13:33;;;;;;;7.00;6.23;;;24.10;49.20;;;;;;5075540;28;20961;-89
2022/08/17 03:16:00;;;;;;;7.30;6.30;;;24.10;49.70;;;;;;5060994;28;20439;-90
2022/08/17 03:18:27;;;;;;;7.80;7.00;;;24.00;50.60;;;;;;5038724;28;20462;-88
2022/08/17 03:20:59;;;;;;;7.40;6.70;;;24.00;50.50;;;;;;5037651;28;20463;-91
2022/08/17 03:23:27;;;;;;;8.30;7.50;;;24.00;50.50;;;;;;5070689;28;20967;-89
2022/08/17 03:25:55;;;;;;;7.00;6.30;;;23.90;50.60;;;;;;5039184;28;20626;-88
2022/08/17 03:28:23;;;;;;;7.23;6.57;;;23.90;50.50;;;;;;5047552;28;20448;-88
2022/08/17 03:30:51;;;;;;;7.77;7.00;;;23.90;50.20;;;;;;5072005;28;20938;-87
2022/08/17 03:33:18;;;;;;;6.73;6.10;;;23.90;50.20;;;;;;5053291;28;20734;-87
2022/08/17 03:35:46;;;;;;;7.53;6.67;;;23.80;50.10;;;;;;5069592;28;20952;-87
2022/08/17 03:38:15;;;;;;;9.50;6.90;;;23.80;50.10;;;;;;5073573;28;20443;-88
2022/08/17 03:40:45;;;;;;;7.93;7.23;;;23.80;50.60;;;;;;5069766;28;20552;-87
2022/08/17 03:43:12;;;;;;;7.27;6.53;;;23.80;50.80;;;;;;5052437;28;20450;-88
2022/08/17 03:56:53;;;;;;;6.90;6.20;;;23.70;50.90;;;;;;5068789;28;20441;-90
2022/08/17 03:59:22;;;;;;;9.67;7.10;;;23.60;50.70;;;;;;5073772;28;20581;-90
2022/08/17 04:01:52;;;;;;;8.47;7.47;;;23.60;51.00;;;;;;5067943;28;20480;-86
2022/08/17 04:04:20;;;;;;;8.20;7.17;;;23.60;51.70;;;;;;5058006;28;20470;-88
2022/08/17 04:06:48;;;;;;;10.00;6.83;;;23.60;52.10;;;;;;5072985;28;21351;-86
2022/08/17 04:09:16;;;;;;;7.77;7.07;;;23.50;51.50;;;;;;5039403;28;20793;-86
2022/08/17 04:11:43;;;;;;;16.63;6.83;;;23.50;50.70;;;;;;5065511;28;20818;-85
2022/08/17 04:14:10;;;;;;;8.17;7.37;;;23.50;50.30;;;;;;5071906;28;20975;-86
2022/08/17 04:16:37;;;;;;;9.07;7.23;;;23.60;50.40;;;;;;5058552;28;20538;-86
2022/08/17 04:19:05;;;;;;;8.90;6.40;;;23.60;50.20;;;;;;5081903;28;20455;-86
2022/08/17 04:21:32;;;;;;;12.27;7.00;;;23.60;49.90;;;;;;5072079;28;20475;-86
2022/08/17 04:23:59;;;;;;;8.93;7.50;;;23.60;49.90;;;;;;5087227;28;20466;-87
2022/08/17 04:26:28;;;;;;;7.97;7.23;;;23.60;50.50;;;;;;5060774;28;20980;-87
2022/08/17 04:28:55;;;;;;;9.03;6.57;;;23.60;49.80;;;;;;5088812;28;20447;-88
2022/08/17 04:31:22;;;;;;;8.30;7.30;;;23.50;49.90;;;;;;5093871;28;20475;-86
2022/08/17 04:33:49;;;;;;;9.50;8.50;;;23.50;49.80;;;;;;5070946;28;20554;-86
2022/08/17 04:36:16;;;;;;;9.87;6.70;;;23.50;49.80;;;;;;5086654;28;20802;-86
2022/08/17 04:38:45;;;;;;;8.07;7.27;;;23.50;49.90;;;;;;5091545;28;21027;-85
2022/08/17 04:44:03;;;;;;;9.23;6.90;;;23.50;50.00;;;;;;5088591;28;20452;-86
2022/08/17 04:46:32;;;;;;;8.23;6.47;;;23.50;49.90;;;;;;5067843;28;20462;-87
2022/08/17 04:49:01;;;;;;;8.43;6.53;;;23.50;50.30;;;;;;5090885;28;20512;-86
2022/08/17 04:51:32;;;;;;;8.97;6.47;;;23.50;50.60;;;;;;5091667;28;21163;-88
2022/08/17 04:54:02;;;;;;;7.80;7.10;;;23.50;51.00;;;;;;5074207;28;20534;-86
2022/08/17 04:56:30;;;;;;;8.30;7.00;;;23.50;51.00;;;;;;5088984;28;20451;-86
2022/08/17 04:58:58;;;;;;;8.37;6.80;;;23.50;51.10;;;;;;5089830;28;20456;-85
2022/08/17 05:01:29;;;;;;;11.63;6.80;;;23.50;51.30;;;;;;5089285;28;20471;-86
2022/08/17 05:03:59;;;;;;;7.80;7.00;;;23.50;51.40;;;;;;5093945;28;20803;-86
2022/08/17 05:06:27;;;;;;;10.53;7.20;;;23.50;51.30;;;;;;5060426;28;20475;-85
2022/08/17 05:08:55;;;;;;;7.27;6.03;;;23.50;51.40;;;;;;5089558;28;20455;-86
2022/08/17 05:11:24;;;;;;;8.10;7.17;;;23.60;51.60;;;;;;5064913;28;21330;-87
2022/08/17 05:13:51;;;;;;;8.70;7.83;;;23.60;51.50;;;;;;5069907;28;20439;-88
2022/08/17 05:16:20;;;;;;;8.20;7.40;;;23.60;51.10;;;;;;5093027;28;20890;-86
2022/08/17 05:18:49;;;;;;;8.03;7.23;;;23.60;51.30;;;;;;5088669;28;20458;-85
2022/08/17 05:21:17;;;;;;;8.43;7.50;;;23.60;51.10;;;;;;5068868;28;20471;-86
2022/08/17 05:23:45;;;;;;;9.80;7.23;;;23.60;51.30;;;;;;5071372;28;20478;-86
2022/08/17 05:26:13;;;;;;;9.10;8.20;;;23.60;51.70;;;;;;5052521;28;20475;-86
2022/08/17 05:28:40;;;;;;;9.00;7.53;;;23.50;51.80;;;;;;5074949;28;21053;-86
2022/08/17 05:31:07;;;;;;;10.97;7.27;;;23.50;51.90;;;;;;5071896;28;20475;-85
2022/08/17 05:33:36;;;;;;;8.77;7.80;;;23.50;51.50;;;;;;5071055;28;20479;-86
2022/08/17 05:36:06;;;;;;;13.17;8.33;;;23.40;52.20;;;;;;5060397;28;20452;-86
2022/08/17 05:38:34;;;;;;;9.60;7.67;;;23.40;52.50;;;;;;5072455;28;20435;-86
2022/08/17 05:41:04;;;;;;;8.73;7.73;;;23.50;52.30;;;;;;5071876;28;20470;-87
2022/08/17 05:43:33;;;;;;;9.27;7.60;;;23.60;52.30;;;;;;5085658;28;20458;-86
2022/08/17 05:46:04;;;;;;;9.20;7.50;;;23.60;52.10;;;;;;5089813;28;21002;-87
2022/08/17 05:48:35;;;;;;;9.23;7.00;;;23.70;51.90;;;;;;5090208;28;20450;-86
2022/08/17 05:51:14;;;;;;;8.40;7.43;;;23.70;51.70;;;;;;5070509;28;20481;-86
2022/08/17 05:53:51;;;;;;;8.70;7.17;;;23.70;51.70;;;;;;5091249;28;20945;-86
2022/08/17 05:56:34;;;;;;;10.50;7.67;;;23.70;51.70;;;;;;5088596;28;20447;-87
2022/08/17 05:59:11;;;;;;;11.13;7.60;;;23.80;51.70;;;;;;5070673;28;20451;-86
2022/08/17 06:01:48;;;;;;;11.73;7.67;;;23.80;51.50;;;;;;5089242;28;20463;-86
2022/08/17 06:04:26;;;;;;;9.73;7.50;;;23.80;51.60;;;;;;5070928;28;20447;-85
2022/08/17 06:07:02;;;;;;;9.87;7.30;;;23.70;51.90;;;;;;5086660;28;21137;-86
2022/08/17 06:09:39;;;;;;;10.40;8.03;;;23.80;51.90;;;;;;5087417;28;20541;-86
2022/08/17 06:12:20;;;;;;;8.57;7.70;;;23.90;52.00;;;;;;5074703;28;20447;-88
2022/08/17 06:15:00;;;;;;;13.60;7.70;;;23.80;52.10;;;;;;5069072;28;20451;-90
2022/08/17 06:17:29;;;;;;;19.27;7.90;;;23.60;52.50;;;;;;5070966;28;20466;-90
2022/08/17 06:20:00;;;;;;;15.63;8.43;;;23.70;52.30;;;;;;5046051;28;20465;-86
2022/08/17 06:22:33;;;;;;;15.07;8.80;;;23.80;52.10;;;;;;5053904;28;20452;-90
2022/08/17 06:25:04;;;;;;;9.63;7.23;;;23.90;52.10;;;;;;5074277;28;20459;-89
2022/08/17 06:27:35;;;;;;;12.43;7.90;;;23.90;52.00;;;;;;5087399;28;20445;-89
2022/08/17 06:30:08;;;;;;;13.60;8.23;;;24.00;52.00;;;;;;5054769;28;20479;-90
2022/08/17 06:32:37;;;;;;;9.10;7.27;;;24.00;51.10;;;;;;5087296;28;20454;-91
2022/08/17 06:35:07;;;;;;;11.53;7.47;;;23.90;51.70;;;;;;5055325;28;20969;-89
2022/08/17 06:37:52;;;;;;;15.53;7.67;;;23.70;52.20;;;;;;5088065;28;20455;-90
2022/08/17 06:40:44;;;;;;;10.97;7.33;;;23.80;52.00;;;;;;5052567;28;20991;-89
2022/08/17 06:43:23;;;;;;;8.33;7.43;;;24.00;52.00;;;;;;5038612;28;20458;-90
2022/08/17 06:45:56;;;;;;;10.80;7.80;;;24.10;51.40;;;;;;5047820;28;20475;-88
2022/08/17 06:48:26;;;;;;;11.10;8.40;;;24.00;51.50;;;;;;5054407;28;20453;-89
2022/08/17 06:50:58;;;;;;;13.70;8.07;;;23.90;51.60;;;;;;5077476;28;20475;-90
2022/08/17 06:53:30;;;;;;;10.00;8.17;;;24.00;51.40;;;;;;5060312;28;20431;-88
2022/08/17 06:56:02;;;;;;;11.93;7.33;;;24.20;51.30;;;;;;5091754;28;20821;-88
2022/08/17 06:58:32;;;;;;;15.13;8.10;;;24.30;50.70;;;;;;5059776;28;22688;-88
2022/08/17 07:01:05;;;;;;;11.17;7.47;;;24.40;50.40;;;;;;5058773;28;20549;-89
2022/08/17 07:03:36;;;;;;;16.87;7.57;;;24.50;50.50;;;;;;5072507;28;20486;-88
2022/08/17 07:06:08;;;;;;;12.10;6.73;;;24.60;50.50;;;;;;5055196;28;20541;-88
2022/08/17 07:08:45;;;;;;;19.60;7.60;;;24.80;50.10;;;;;;5075839;28;20498;-88
2022/08/17 07:11:17;;;;;;;10.40;8.50;;;24.70;50.00;;;;;;5092009;28;20966;-87
2022/08/17 07:13:50;;;;;;;10.43;7.80;;;24.70;50.10;;;;;;5068358;28;20453;-88
2022/08/17 07:16:21;;;;;;;19.53;7.00;;;24.80;49.30;;;;;;5073022;28;20439;-88
2022/08/17 07:18:51;;;;;;;9.50;7.33;;;25.10;49.20;;;;;;5095419;28;20466;-88
2022/08/17 07:21:27;;;;;;;14.37;7.10;;;25.40;49.10;;;;;;5052203;28;20459;-87
2022/08/17 07:24:19;;;;;;;10.50;7.70;;;25.40;48.90;;;;;;5075438;28;20812;-87
2022/08/17 07:26:48;;;;;;;9.00;6.60;;;25.50;48.90;;;;;;5057982;28;20556;-87
2022/08/17 07:29:18;;;;;;;9.37;7.10;;;25.70;48.00;;;;;;5058484;28;20459;-89
2022/08/17 07:31:46;;;;;;;7.73;6.90;;;25.70;47.80;;;;;;5052457;28;20535;-88
2022/08/17 07:34:13;;;;;;;7.00;6.00;;;25.80;47.80;;;;;;5076489;28;20492;-88
2022/08/17 07:36:41;;;;;;;9.97;7.10;;;26.00;47.50;;;;;;5059070;28;20451;-88
2022/08/17 07:39:10;;;;;;;9.17;6.63;;;26.20;46.90;;;;;;5075766;28;20456;-88
2022/08/17 07:41:41;;;;;;;7.73;6.40;;;26.10;47.10;;;;;;5077481;28;20540;-88
2022/08/17 07:44:13;;;;;;;7.70;5.87;;;26.20;46.80;;;;;;5059118;28;20452;-88
2022/08/17 07:49:38;;;;;;;9.47;6.03;;;26.60;46.10;;;;;;5048367;28;20440;-88
2022/08/17 07:52:08;;;;;;;8.23;6.87;;;26.70;45.90;;;;;;5095188;28;20443;-88
2022/08/17 07:54:39;;;;;;;6.40;5.80;;;26.80;46.20;;;;;;5074554;28;20455;-89
2022/08/17 07:57:32;;;;;;;16.23;6.73;;;26.90;46.10;;;;;;5058831;28;20435;-88
2022/08/17 08:00:18;;;;;;;24.53;6.80;;;27.00;45.60;;;;;;5046958;28;20502;-86
2022/08/17 08:02:59;;;;;;;23.80;6.97;;;27.10;45.50;;;;;;5074959;28;20470;-88
2022/08/17 08:05:29;;;;;;;11.23;6.17;;;27.10;44.60;;;;;;5075946;28;20475;-87
2022/08/17 08:07:59;;;;;;;6.60;5.87;;;27.30;44.70;;;;;;5056740;28;20455;-88
2022/08/17 08:10:34;;;;;;;12.23;6.20;;;27.40;44.40;;;;;;5074058;28;20478;-88
2022/08/17 08:13:07;;;;;;;11.10;5.53;;;27.50;44.30;;;;;;5073349;28;20440;-87
2022/08/17 08:15:38;;;;;;;7.83;6.10;;;27.50;44.70;;;;;;5065324;28;20443;-88
2022/08/17 08:18:20;;;;;;;10.73;6.40;;;27.70;44.40;;;;;;5057641;28;20451;-88
2022/08/17 08:20:51;;;;;;;20.73;6.37;;;28.00;44.00;;;;;;5069715;28;20880;-90
2022/08/17 08:23:34;;;;;;;6.93;5.70;;;28.10;43.80;;;;;;5067669;28;20454;-89
2022/08/17 08:26:14;;;;;;;10.13;6.07;;;28.30;43.10;;;;;;5070199;28;20459;-88
2022/08/17 08:28:53;;;;;;;15.13;5.83;;;28.30;42.90;;;;;;5083383;28;20467;-88
2022/08/17 08:31:27;;;;;;;25.83;6.40;;;28.50;43.00;;;;;;5071635;28;20574;-88
2022/08/17 08:34:07;;;;;;;12.43;5.90;;;28.60;42.30;;;;;;5082686;28;20452;-88
2022/08/17 08:36:47;;;;;;;13.30;5.50;;;28.70;42.20;;;;;;5072266;28;20459;-88
2022/08/17 08:39:20;;;;;;;11.93;5.40;;;28.80;41.80;;;;;;5056482;28;20528;-88
2022/08/17 08:42:00;;;;;;;11.70;5.50;;;29.00;41.40;;;;;;5073511;28;20477;-87
2022/08/17 08:44:41;;;;;;;8.53;5.30;;;29.20;41.20;;;;;;5080921;28;20442;-88
2022/08/17 08:47:18;;;;;;;5.50;5.00;;;29.40;40.80;;;;;;5056740;28;20851;-89
2022/08/17 08:50:07;;;;;;;10.67;5.17;;;29.50;40.40;;;;;;5089176;28;20869;-88
2022/08/17 08:53:01;;;;;;;19.80;6.77;;;29.70;40.30;;;;;;5090406;28;20446;-88
2022/08/17 08:55:36;;;;;;;9.07;5.60;;;29.70;40.40;;;;;;5077616;28;20810;-88
2022/08/17 08:58:09;;;;;;;14.93;6.07;;;29.80;40.00;;;;;;5091354;28;20441;-89
2022/08/17 09:00:42;;;;;;;15.87;5.83;;;29.80;39.80;;;;;;5092613;28;20493;-88
2022/08/17 09:03:47;;;;;;;16.40;4.90;;;29.80;39.40;;;;;;5090751;28;20443;-87
2022/08/17 09:06:28;;;;;;;14.03;5.90;;;29.90;39.20;;;;;;5067369;28;20481;-88
2022/08/17 09:09:08;;;;;;;9.90;5.37;;;29.90;39.50;;;;;;5073134;28;20516;-88
2022/08/17 09:11:42;;;;;;;5.40;4.30;;;29.90;39.70;;;;;;5073080;28;21112;-88
2022/08/17 09:14:16;;;;;;;7.57;5.77;;;30.00;40.30;;;;;;5091131;28;21346;-88
2022/08/17 09:16:49;;;;;;;16.67;5.90;;;30.00;39.00;;;;;;5088692;28;20862;-88
2022/08/17 09:19:22;;;;;;;9.43;5.43;;;30.10;39.30;;;;;;5089512;28;20466;-88
2022/08/17 09:21:53;;;;;;;8.10;5.50;;;30.00;38.90;;;;;;5070609;28;20482;-88
2022/08/17 09:24:25;;;;;;;9.03;6.77;;;29.90;39.40;;;;;;5081977;28;21271;-89
2022/08/17 09:26:58;;;;;;;14.90;6.40;;;29.80;39.00;;;;;;5087396;28;20480;-89
2022/08/17 09:29:31;;;;;;;7.40;4.97;;;29.80;38.70;;;;;;5056913;28;20609;-90
2022/08/17 09:32:02;;;;;;;9.23;5.77;;;29.90;39.00;;;;;;5066045;28;21020;-88
2022/08/17 09:34:33;;;;;;;10.17;5.53;;;30.00;39.10;;;;;;5055295;28;21009;-89
2022/08/17 09:37:16;;;;;;;5.53;5.13;;;30.00;38.90;;;;;;5085661;28;20479;-89
2022/08/17 09:39:51;;;;;;;14.53;5.43;;;30.20;38.20;;;;;;5072363;28;20447;-89
2022/08/17 09:42:23;;;;;;;8.50;4.90;;;30.30;38.10;;;;;;5069300;28;20522;-89
2022/08/17 09:45:01;;;;;;;8.30;5.17;;;30.50;38.30;;;;;;5088097;28;20454;-89
2022/08/17 09:47:32;;;;;;;16.13;5.13;;;30.60;38.50;;;;;;5086804;28;20964;-88
2022/08/17 09:50:07;;;;;;;7.43;5.10;;;30.60;38.00;;;;;;5067629;28;20471;-90
2022/08/17 09:52:35;;;;;;;4.70;4.30;;;30.80;37.50;;;;;;5089589;28;20500;-88
2022/08/17 09:55:04;;;;;;;5.30;4.80;;;30.80;36.90;;;;;;5091171;28;20466;-89
2022/08/17 09:57:50;;;;;;;4.90;4.40;;;31.10;36.70;;;;;;5040838;28;20431;-87
2022/08/17 10:00:25;;;;;;;8.53;4.50;;;31.40;35.70;;;;;;5070035;28;20475;-89
2022/08/17 10:03:19;;;;;;;9.80;5.33;;;31.50;35.50;;;;;;5088725;28;20477;-89
2022/08/17 10:05:52;;;;;;;8.90;4.97;;;31.70;35.50;;;;;;5063571;28;20457;-89
2022/08/17 10:08:29;;;;;;;6.90;4.57;;;31.70;34.30;;;;;;5087910;28;20446;-89
2022/08/17 10:11:10;;;;;;;6.23;4.67;;;31.70;34.20;;;;;;5061926;28;20462;-89
2022/08/17 10:13:44;;;;;;;6.37;4.67;;;31.60;34.70;;;;;;5072559;28;20525;-89
2022/08/17 10:16:20;;;;;;;6.10;4.47;;;31.70;34.80;;;;;;5071478;28;20443;-89
2022/08/17 10:19:00;;;;;;;5.20;4.70;;;31.70;34.70;;;;;;5073333;28;20504;-89
2022/08/17 10:27:10;;;;;;;5.47;5.07;;;31.80;33.60;;;;;;5072640;28;20456;-90
2022/08/17 10:29:42;;;;;;;5.67;4.80;;;32.00;34.30;;;;;;5043966;28;20436;-91
2022/08/17 10:32:16;;;;;;;5.37;4.97;;;31.90;32.50;;;;;;5059602;28;20435;-90
2022/08/17 10:35:10;;;;;;;7.33;4.93;;;31.90;33.70;;;;;;5092110;28;20439;-91
2022/08/17 10:37:47;;;;;;;5.77;4.50;;;32.00;33.70;;;;;;5080939;28;21147;-89
2022/08/17 10:40:23;;;;;;;5.33;4.93;;;31.90;33.30;;;;;;5045851;28;20582;-89
2022/08/17 10:42:56;;;;;;;6.00;4.83;;;31.90;33.70;;;;;;5043998;28;20525;-89
2022/08/17 10:45:28;;;;;;;4.60;4.20;;;32.10;33.80;;;;;;5088985;28;20446;-89
2022/08/17 10:48:02;;;;;;;4.60;4.30;;;32.00;32.90;;;;;;5077470;28;20562;-89
2022/08/17 10:51:06;;;;;;;5.40;4.63;;;31.90;33.30;;;;;;5090545;28;22292;-91
2022/08/17 10:53:57;;;;;;;5.33;4.93;;;31.90;33.40;;;;;;5089445;28;20450;-90
2022/08/17 10:56:40;;;;;;;4.90;4.50;;;31.80;33.30;;;;;;5093857;28;20435;-90
2022/08/17 10:59:07;;;;;;;5.00;4.70;;;31.90;33.90;;;;;;5088318;28;20447;-90
2022/08/17 11:01:57;;;;;;;5.03;4.53;;;32.00;32.70;;;;;;5074967;28;20464;-90
2022/08/17 11:04:39;;;;;;;4.77;4.40;;;32.00;33.10;;;;;;5091003;28;20439;-89
2022/08/17 11:07:17;;;;;;;4.57;4.17;;;32.10;33.30;;;;;;5077071;28;20460;-89
2022/08/17 11:10:04;;;;;;;4.20;3.90;;;32.20;32.90;;;;;;5077108;28;20450;-90
2022/08/17 11:12:42;;;;;;;4.63;3.93;;;32.20;32.70;;;;;;5088878;28;20449;-90
2022/08/17 11:15:28;;;;;;;5.87;4.10;;;32.30;32.30;;;;;;5081957;28;20533;-88
2022/08/17 11:18:15;;;;;;;4.83;4.43;;;32.40;32.80;;;;;;5089116;28;20447;-89
2022/08/17 11:21:13;;;;;;;4.40;4.00;;;32.40;31.90;;;;;;5088901;28;20982;-90
2022/08/17 11:24:00;;;;;;;4.63;4.20;;;32.20;31.50;;;;;;5087927;28;20507;-90
2022/08/17 11:26:30;;;;;;;4.83;4.47;;;32.00;31.60;;;;;;5087105;28;20983;-90
2022/08/17 11:29:01;;;;;;;5.43;3.90;;;32.00;32.00;;;;;;5071463;28;20441;-90
2022/08/17 11:31:37;;;;;;;6.00;5.50;;;32.00;32.30;;;;;;5091322;28;20478;-88
2022/08/17 11:34:13;;;;;;;4.57;4.13;;;31.90;32.30;;;;;;5071777;28;20867;-90
2022/08/17 11:37:05;;;;;;;5.03;4.30;;;31.90;32.50;;;;;;5090993;28;20447;-89
2022/08/17 11:40:09;;;;;;;5.80;4.57;;;32.00;32.90;;;;;;5059038;28;21723;-89
2022/08/17 11:42:50;;;;;;;5.10;4.20;;;31.90;33.00;;;;;;5064010;28;20725;-89
2022/08/17 11:45:46;;;;;;;5.03;4.53;;;31.70;32.80;;;;;;5090626;28;20447;-89
2022/08/17 11:54:06;;;;;;;4.93;4.40;;;31.50;33.40;;;;;;5084009;28;21530;-90
2022/08/17 11:56:41;;;;;;;9.13;4.20;;;31.50;33.80;;;;;;5054428;28;21009;-89
2022/08/17 11:59:58;;;;;;;4.53;4.13;;;31.40;34.10;;;;;;5091312;28;20457;-90
2022/08/17 12:02:41;;;;;;;4.47;4.07;;;31.30;35.00;;;;;;4963846;28;20454;-89
2022/08/17 12:05:41;;;;;;;7.73;4.90;;;31.10;36.10;;;;;;5072239;28;20566;-89
2022/08/17 12:08:17;;;;;;;5.80;5.20;;;31.10;37.30;;;;;;5058611;28;20466;-91
2022/08/17 12:10:59;;;;;;;13.20;4.80;;;31.00;39.10;;;;;;5072884;28;20880;-90
2022/08/17 12:13:27;;;;;;;5.70;5.20;;;31.00;41.50;;;;;;5090396;28;20457;-90
2022/08/17 12:15:55;;;;;;;5.97;5.47;;;30.90;41.10;;;;;;5081897;28;20455;-91
2022/08/17 12:18:26;;;;;;;7.93;4.83;;;30.80;40.80;;;;;;5076441;28;20584;-90
2022/08/17 12:21:12;;;;;;;6.00;4.77;;;30.80;42.50;;;;;;5042536;28;20464;-90
2022/08/17 12:23:46;;;;;;;6.73;5.53;;;30.60;41.80;;;;;;5060297;28;21008;-90
2022/08/17 12:26:21;;;;;;;5.13;4.43;;;30.60;42.00;;;;;;5066912;28;20440;-89
2022/08/17 12:28:51;;;;;;;5.33;4.83;;;30.60;41.40;;;;;;5073622;28;20443;-90
2022/08/17 12:31:22;;;;;;;5.10;4.63;;;30.60;41.90;;;;;;5066901;28;20471;-89
2022/08/17 12:33:50;;;;;;;4.90;4.50;;;30.60;41.20;;;;;;5090114;28;20443;-90
2022/08/17 12:36:23;;;;;;;5.40;5.00;;;30.70;41.70;;;;;;5064510;28;20443;-90
2022/08/17 12:38:58;;;;;;;6.33;4.67;;;30.60;41.00;;;;;;5088208;28;20496;-89
2022/08/17 12:41:42;;;;;;;8.03;5.17;;;30.60;40.40;;;;;;5090119;28;20752;-90
2022/08/17 12:44:15;;;;;;;8.77;5.20;;;30.70;40.50;;;;;;5071643;28;20524;-90
2022/08/17 12:46:48;;;;;;;5.20;4.70;;;30.60;40.10;;;;;;5089147;28;20452;-90
2022/08/17 12:49:25;;;;;;;5.93;4.30;;;30.60;40.70;;;;;;5086080;28;20534;-91
2022/08/17 12:52:12;;;;;;;5.00;4.60;;;30.70;41.40;;;;;;5089840;28;20486;-88
2022/08/17 12:54:46;;;;;;;5.00;4.60;;;30.80;41.60;;;;;;5081924;28;20527;-86
2022/08/17 12:57:18;;;;;;;5.47;4.97;;;30.90;40.60;;;;;;5081311;28;20445;-87
2022/08/17 12:59:52;;;;;;;6.57;5.30;;;30.90;39.80;;;;;;5087837;28;20485;-87
2022/08/17 13:02:31;;;;;;;6.03;4.77;;;31.00;40.30;;;;;;5071402;28;20447;-87
2022/08/17 13:05:00;;;;;;;5.50;5.10;;;31.00;39.80;;;;;;5073019;28;20445;-88
2022/08/17 13:07:30;;;;;;;5.30;4.80;;;30.90;40.40;;;;;;5052593;28;20463;-86
2022/08/17 13:09:58;;;;;;;5.03;4.10;;;31.00;40.70;;;;;;5089367;28;20483;-88
2022/08/17 13:12:31;;;;;;;4.83;4.40;;;30.90;39.40;;;;;;5077118;28;20740;-87
2022/08/17 13:14:58;;;;;;;5.70;5.20;;;30.80;38.20;;;;;;5087661;28;20446;-87
2022/08/17 13:17:30;;;;;;;4.43;4.13;;;30.50;38.20;;;;;;5073548;28;20448;-89
2022/08/17 13:19:58;;;;;;;5.70;5.23;;;30.50;38.40;;;;;;5055974;28;20489;-88
2022/08/17 13:22:31;;;;;;;4.43;4.10;;;30.50;38.40;;;;;;5090727;28;20817;-89
2022/08/17 13:25:06;;;;;;;6.73;5.60;;;30.40;38.30;;;;;;5086957;28;20721;-88
2022/08/17 13:27:34;;;;;;;6.37;4.57;;;30.30;38.30;;;;;;5069816;28;20463;-86
2022/08/17 13:30:10;;;;;;;5.00;4.60;;;30.10;38.40;;;;;;5072010;28;20470;-87
2022/08/17 13:32:40;;;;;;;5.10;4.53;;;30.30;38.90;;;;;;5089525;28;20820;-87
2022/08/17 13:35:43;;;;;;;4.70;4.40;;;30.30;38.20;;;;;;5053188;28;20924;-89
2022/08/17 13:38:14;;;;;;;6.10;4.50;;;30.50;38.50;;;;;;5003986;28;20443;-88
2022/08/17 13:40:47;;;;;;;4.93;4.43;;;30.50;38.30;;;;;;5009082;28;20478;-88
2022/08/17 13:43:43;;;;;;;5.70;4.20;;;30.50;38.50;;;;;;5023390;28;20452;-85